sensor_id;sensor_type;location;lat;lon;timestamp;temperature;humidity
14252;DHT22;7210;51.502;10.722;2023-03-14T00:00:14;8.90;99.90
14252;DHT22;7210;51.502;10.722;2023-03-14T00:02:42;8.90;99.90
14252;DHT22;7210;51.502;10.722;2023-03-14T00:05:10;9.00;99.90
14252;DHT22;7210;51.502;10.722;2023-03-14T00:07:38;9.10;99.90
14252;DHT22;7210;51.502;10.722;2023-03-14T00:10:08;9.00;99.90
14252;DHT22;7210;51.502;10.722;2023-03-14T00:12:38;9.00;99.90
14252;DHT22;7210;51.502;10.722;2023-03-14T00:15:08;9.00;99.90
14252;DHT22;7210;51.502;10.722;2023-03-14T00:17:38;9.00;99.90
14252;DHT22;7210;51.502;10.722;2023-03-14T00:20:07;9.00;99.90
14252;DHT22;7210;51.502;10.722;2023-03-14T00:22:37;9.00;99.90
14252;DHT22;7210;51.502;10.722;2023-03-14T00:25:07;8.90;99.90
14252;DHT22;7210;51.502;10.722;2023-03-14T00:27:36;8.80;99.90
14252;DHT22;7210;51.502;10.722;2023-03-14T00:30:05;8.70;99.90
14252;DHT22;7210;51.502;10.722;2023-03-14T00:32:35;8.60;99.90
14252;DHT22;7210;51.502;10.722;2023-03-14T00:35:03;8.60;99.90
14252;DHT22;7210;51.502;10.722;2023-03-14T00:37:31;8.50;99.90
14252;DHT22;7210;51.502;10.722;2023-03-14T00:39:58;8.50;99.90
14252;DHT22;7210;51.502;10.722;2023-03-14T00:42:25;8.70;99.90
14252;DHT22;7210;51.502;10.722;2023-03-14T00:44:52;9.00;99.90
14252;DHT22;7210;51.502;10.722;2023-03-14T00:47:21;9.20;99.90
14252;DHT22;7210;51.502;10.722;2023-03-14T00:49:48;9.20;99.90
14252;DHT22;7210;51.502;10.722;2023-03-14T00:52:15;9.20;99.90
14252;DHT22;7210;51.502;10.722;2023-03-14T00:54:42;9.20;99.90
14252;DHT22;7210;51.502;10.722;2023-03-14T00:57:10;9.30;99.90
14252;DHT22;7210;51.502;10.722;2023-03-14T00:59:37;9.30;99.90
14252;DHT22;7210;51.502;10.722;2023-03-14T01:02:04;9.30;99.90
14252;DHT22;7210;51.502;10.722;2023-03-14T01:04:33;9.30;99.90
14252;DHT22;7210;51.502;10.722;2023-03-14T01:07:00;9.30;99.90
14252;DHT22;7210;51.502;10.722;2023-03-14T01:09:27;9.30;99.90
14252;DHT22;7210;51.502;10.722;2023-03-14T01:11:54;9.30;99.90
14252;DHT22;7210;51.502;10.722;2023-03-14T01:14:22;9.40;99.90
14252;DHT22;7210;51.502;10.722;2023-03-14T01:16:49;9.30;99.90
14252;DHT22;7210;51.502;10.722;2023-03-14T01:19:17;9.40;99.90
14252;DHT22;7210;51.502;10.722;2023-03-14T01:21:45;9.40;99.90
14252;DHT22;7210;51.502;10.722;2023-03-14T01:24:12;9.40;99.90
14252;DHT22;7210;51.502;10.722;2023-03-14T01:26:40;9.50;99.90
14252;DHT22;7210;51.502;10.722;2023-03-14T01:29:08;9.50;99.90
14252;DHT22;7210;51.502;10.722;2023-03-14T01:31:38;9.50;99.90
14252;DHT22;7210;51.502;10.722;2023-03-14T01:34:05;9.60;99.90
14252;DHT22;7210;51.502;10.722;2023-03-14T01:36:32;9.60;99.90
14252;DHT22;7210;51.502;10.722;2023-03-14T01:39:03;9.70;99.90
14252;DHT22;7210;51.502;10.722;2023-03-14T01:41:32;9.70;99.90
14252;DHT22;7210;51.502;10.722;2023-03-14T01:43:59;9.60;99.90
14252;DHT22;7210;51.502;10.722;2023-03-14T01:46:45;9.70;99.90
14252;DHT22;7210;51.502;10.722;2023-03-14T01:49:20;9.60;99.90
14252;DHT22;7210;51.502;10.722;2023-03-14T01:52:02;9.50;99.90
14252;DHT22;7210;51.502;10.722;2023-03-14T01:54:37;9.40;99.90
14252;DHT22;7210;51.502;10.722;2023-03-14T01:57:10;9.30;99.90
14252;DHT22;7210;51.502;10.722;2023-03-14T01:59:45;9.30;99.90
14252;DHT22;7210;51.502;10.722;2023-03-14T02:02:15;9.20;99.90
14252;DHT22;7210;51.502;10.722;2023-03-14T02:04:43;9.00;99.90
14252;DHT22;7210;51.502;10.722;2023-03-14T02:07:16;8.90;99.90
14252;DHT22;7210;51.502;10.722;2023-03-14T02:10:10;8.80;99.90
14252;DHT22;7210;51.502;10.722;2023-03-14T02:12:38;8.80;99.90
14252;DHT22;7210;51.502;10.722;2023-03-14T02:15:29;8.70;99.90
14252;DHT22;7210;51.502;10.722;2023-03-14T02:18:17;8.60;99.90
14252;DHT22;7210;51.502;10.722;2023-03-14T02:21:08;8.70;99.90
14252;DHT22;7210;51.502;10.722;2023-03-14T02:23:46;8.60;99.90
14252;DHT22;7210;51.502;10.722;2023-03-14T02:26:26;8.60;99.90
14252;DHT22;7210;51.502;10.722;2023-03-14T02:28:58;8.50;99.90
14252;DHT22;7210;51.502;10.722;2023-03-14T02:31:25;8.60;99.90
14252;DHT22;7210;51.502;10.722;2023-03-14T02:33:53;8.50;99.90
14252;DHT22;7210;51.502;10.722;2023-03-14T02:36:27;8.50;99.90
14252;DHT22;7210;51.502;10.722;2023-03-14T02:39:06;8.60;99.90
14252;DHT22;7210;51.502;10.722;2023-03-14T02:41:41;8.60;99.90
14252;DHT22;7210;51.502;10.722;2023-03-14T02:44:12;8.60;99.90
14252;DHT22;7210;51.502;10.722;2023-03-14T02:46:44;8.50;99.90
14252;DHT22;7210;51.502;10.722;2023-03-14T02:49:14;8.60;99.90
14252;DHT22;7210;51.502;10.722;2023-03-14T02:51:42;8.60;99.90
14252;DHT22;7210;51.502;10.722;2023-03-14T02:54:11;8.60;99.90
14252;DHT22;7210;51.502;10.722;2023-03-14T02:56:50;8.60;99.90
14252;DHT22;7210;51.502;10.722;2023-03-14T02:59:19;8.60;99.90
14252;DHT22;7210;51.502;10.722;2023-03-14T03:01:54;8.60;99.90
14252;DHT22;7210;51.502;10.722;2023-03-14T03:04:24;8.50;99.90
14252;DHT22;7210;51.502;10.722;2023-03-14T03:10:08;8.60;99.90
14252;DHT22;7210;51.502;10.722;2023-03-14T03:12:36;8.60;99.90
14252;DHT22;7210;51.502;10.722;2023-03-14T03:15:06;8.60;99.90
14252;DHT22;7210;51.502;10.722;2023-03-14T03:20:59;8.80;99.90
14252;DHT22;7210;51.502;10.722;2023-03-14T03:23:27;8.90;99.90
14252;DHT22;7210;51.502;10.722;2023-03-14T03:25:57;8.80;99.90
14252;DHT22;7210;51.502;10.722;2023-03-14T03:28:24;8.80;99.90
14252;DHT22;7210;51.502;10.722;2023-03-14T03:30:54;8.80;99.90
14252;DHT22;7210;51.502;10.722;2023-03-14T03:33:21;8.90;99.90
14252;DHT22;7210;51.502;10.722;2023-03-14T03:35:50;9.00;99.90
14252;DHT22;7210;51.502;10.722;2023-03-14T03:38:29;9.10;99.90
14252;DHT22;7210;51.502;10.722;2023-03-14T03:41:04;9.10;99.90
14252;DHT22;7210;51.502;10.722;2023-03-14T03:43:32;9.20;99.90
14252;DHT22;7210;51.502;10.722;2023-03-14T03:46:05;9.20;99.90
14252;DHT22;7210;51.502;10.722;2023-03-14T03:48:34;9.20;99.90
14252;DHT22;7210;51.502;10.722;2023-03-14T03:51:04;9.30;99.90
14252;DHT22;7210;51.502;10.722;2023-03-14T03:53:32;9.40;99.90
14252;DHT22;7210;51.502;10.722;2023-03-14T03:56:13;9.40;99.90
14252;DHT22;7210;51.502;10.722;2023-03-14T03:58:42;9.40;99.90
14252;DHT22;7210;51.502;10.722;2023-03-14T04:01:10;9.40;99.90
14252;DHT22;7210;51.502;10.722;2023-03-14T04:03:39;9.40;99.90
14252;DHT22;7210;51.502;10.722;2023-03-14T04:06:08;9.30;99.90
14252;DHT22;7210;51.502;10.722;2023-03-14T04:08:38;9.30;99.90
14252;DHT22;7210;51.502;10.722;2023-03-14T04:11:07;9.40;99.90
14252;DHT22;7210;51.502;10.722;2023-03-14T04:13:48;9.40;99.90
14252;DHT22;7210;51.502;10.722;2023-03-14T04:16:19;9.40;99.90
14252;DHT22;7210;51.502;10.722;2023-03-14T04:18:48;9.40;99.90
14252;DHT22;7210;51.502;10.722;2023-03-14T04:21:24;9.50;99.90
14252;DHT22;7210;51.502;10.722;2023-03-14T04:23:55;9.60;99.90
14252;DHT22;7210;51.502;10.722;2023-03-14T04:26:24;9.60;99.90
14252;DHT22;7210;51.502;10.722;2023-03-14T04:28:51;9.60;99.90
14252;DHT22;7210;51.502;10.722;2023-03-14T04:31:22;9.60;99.90
14252;DHT22;7210;51.502;10.722;2023-03-14T04:33:51;9.60;99.90
14252;DHT22;7210;51.502;10.722;2023-03-14T04:36:26;9.60;99.90
14252;DHT22;7210;51.502;10.722;2023-03-14T04:38:53;9.70;99.90
14252;DHT22;7210;51.502;10.722;2023-03-14T04:41:23;9.70;99.90
14252;DHT22;7210;51.502;10.722;2023-03-14T04:43:50;9.70;99.90
14252;DHT22;7210;51.502;10.722;2023-03-14T04:46:17;9.70;99.90
14252;DHT22;7210;51.502;10.722;2023-03-14T04:48:46;9.60;99.90
14252;DHT22;7210;51.502;10.722;2023-03-14T04:51:15;9.60;99.90
14252;DHT22;7210;51.502;10.722;2023-03-14T04:53:42;9.70;99.90
14252;DHT22;7210;51.502;10.722;2023-03-14T04:56:11;9.70;99.90
14252;DHT22;7210;51.502;10.722;2023-03-14T04:58:41;9.70;99.90
14252;DHT22;7210;51.502;10.722;2023-03-14T05:01:10;9.70;99.90
14252;DHT22;7210;51.502;10.722;2023-03-14T05:03:57;9.60;99.90
14252;DHT22;7210;51.502;10.722;2023-03-14T05:06:42;9.60;99.90
14252;DHT22;7210;51.502;10.722;2023-03-14T05:09:41;9.60;99.90
14252;DHT22;7210;51.502;10.722;2023-03-14T05:12:11;9.60;99.90
14252;DHT22;7210;51.502;10.722;2023-03-14T05:14:58;9.60;99.90
14252;DHT22;7210;51.502;10.722;2023-03-14T05:17:44;9.60;99.90
14252;DHT22;7210;51.502;10.722;2023-03-14T05:20:13;9.50;99.90
14252;DHT22;7210;51.502;10.722;2023-03-14T05:23:12;9.40;99.90
14252;DHT22;7210;51.502;10.722;2023-03-14T05:25:59;9.40;99.90
14252;DHT22;7210;51.502;10.722;2023-03-14T05:28:29;9.40;99.90
14252;DHT22;7210;51.502;10.722;2023-03-14T05:31:19;9.50;99.90
14252;DHT22;7210;51.502;10.722;2023-03-14T05:33:57;9.50;99.90
14252;DHT22;7210;51.502;10.722;2023-03-14T05:36:46;9.50;99.90
14252;DHT22;7210;51.502;10.722;2023-03-14T05:39:33;9.40;99.90
14252;DHT22;7210;51.502;10.722;2023-03-14T05:42:29;9.30;99.90
14252;DHT22;7210;51.502;10.722;2023-03-14T05:45:20;9.30;99.90
14252;DHT22;7210;51.502;10.722;2023-03-14T05:48:04;9.30;99.90
14252;DHT22;7210;51.502;10.722;2023-03-14T05:50:34;9.20;99.90
14252;DHT22;7210;51.502;10.722;2023-03-14T05:53:23;9.30;99.90
14252;DHT22;7210;51.502;10.722;2023-03-14T05:56:15;9.40;99.90
14252;DHT22;7210;51.502;10.722;2023-03-14T05:58:54;9.40;99.90
14252;DHT22;7210;51.502;10.722;2023-03-14T06:01:30;9.30;99.90
14252;DHT22;7210;51.502;10.722;2023-03-14T06:04:26;9.30;99.90
14252;DHT22;7210;51.502;10.722;2023-03-14T06:06:57;9.20;99.90
14252;DHT22;7210;51.502;10.722;2023-03-14T06:09:26;9.20;99.90
14252;DHT22;7210;51.502;10.722;2023-03-14T06:11:57;9.20;99.90
14252;DHT22;7210;51.502;10.722;2023-03-14T06:14:24;9.10;99.90
14252;DHT22;7210;51.502;10.722;2023-03-14T06:16:52;9.10;99.90
14252;DHT22;7210;51.502;10.722;2023-03-14T06:19:21;9.10;99.90
14252;DHT22;7210;51.502;10.722;2023-03-14T06:21:49;9.10;99.90
14252;DHT22;7210;51.502;10.722;2023-03-14T06:24:16;9.10;99.90
14252;DHT22;7210;51.502;10.722;2023-03-14T06:26:48;9.00;99.90
14252;DHT22;7210;51.502;10.722;2023-03-14T06:29:15;9.10;99.90
14252;DHT22;7210;51.502;10.722;2023-03-14T06:31:43;9.20;99.90
14252;DHT22;7210;51.502;10.722;2023-03-14T06:34:15;9.30;99.90
14252;DHT22;7210;51.502;10.722;2023-03-14T06:36:43;9.30;99.90
14252;DHT22;7210;51.502;10.722;2023-03-14T06:39:10;9.30;99.90
14252;DHT22;7210;51.502;10.722;2023-03-14T06:41:42;9.30;99.90
14252;DHT22;7210;51.502;10.722;2023-03-14T06:44:11;9.40;99.90
14252;DHT22;7210;51.502;10.722;2023-03-14T06:46:38;9.40;99.90
14252;DHT22;7210;51.502;10.722;2023-03-14T06:49:06;9.50;99.90
14252;DHT22;7210;51.502;10.722;2023-03-14T06:51:33;9.40;99.90
14252;DHT22;7210;51.502;10.722;2023-03-14T06:54:03;9.50;99.90
14252;DHT22;7210;51.502;10.722;2023-03-14T06:56:30;9.50;99.90
14252;DHT22;7210;51.502;10.722;2023-03-14T06:58:58;9.50;99.90
14252;DHT22;7210;51.502;10.722;2023-03-14T07:01:30;9.60;99.90
14252;DHT22;7210;51.502;10.722;2023-03-14T07:04:05;9.60;99.90
14252;DHT22;7210;51.502;10.722;2023-03-14T07:06:35;9.60;99.90
14252;DHT22;7210;51.502;10.722;2023-03-14T07:09:04;9.60;99.90
14252;DHT22;7210;51.502;10.722;2023-03-14T07:11:34;9.70;99.90
14252;DHT22;7210;51.502;10.722;2023-03-14T07:14:03;9.80;99.90
14252;DHT22;7210;51.502;10.722;2023-03-14T07:16:33;9.70;99.90
14252;DHT22;7210;51.502;10.722;2023-03-14T07:19:05;9.70;99.90
14252;DHT22;7210;51.502;10.722;2023-03-14T07:21:33;9.80;99.90
14252;DHT22;7210;51.502;10.722;2023-03-14T07:24:07;9.90;99.90
14252;DHT22;7210;51.502;10.722;2023-03-14T07:26:50;10.00;99.90
14252;DHT22;7210;51.502;10.722;2023-03-14T07:29:17;10.00;99.90
14252;DHT22;7210;51.502;10.722;2023-03-14T07:31:45;10.10;99.90
14252;DHT22;7210;51.502;10.722;2023-03-14T07:34:21;10.20;99.90
14252;DHT22;7210;51.502;10.722;2023-03-14T07:36:49;10.30;99.90
14252;DHT22;7210;51.502;10.722;2023-03-14T07:39:16;10.40;99.90
14252;DHT22;7210;51.502;10.722;2023-03-14T07:41:51;10.40;99.90
14252;DHT22;7210;51.502;10.722;2023-03-14T07:44:39;10.40;99.90
14252;DHT22;7210;51.502;10.722;2023-03-14T07:47:08;10.40;99.90
14252;DHT22;7210;51.502;10.722;2023-03-14T07:49:35;10.40;99.90
14252;DHT22;7210;51.502;10.722;2023-03-14T07:52:02;10.40;99.90
14252;DHT22;7210;51.502;10.722;2023-03-14T07:54:30;10.40;99.90
14252;DHT22;7210;51.502;10.722;2023-03-14T07:56:58;10.50;99.90
14252;DHT22;7210;51.502;10.722;2023-03-14T07:59:26;10.40;99.90
14252;DHT22;7210;51.502;10.722;2023-03-14T08:01:53;10.40;99.90
14252;DHT22;7210;51.502;10.722;2023-03-14T08:04:22;10.40;99.90
14252;DHT22;7210;51.502;10.722;2023-03-14T08:06:49;10.40;99.90
14252;DHT22;7210;51.502;10.722;2023-03-14T08:09:16;10.40;99.90
14252;DHT22;7210;51.502;10.722;2023-03-14T08:11:43;10.40;99.90
14252;DHT22;7210;51.502;10.722;2023-03-14T08:14:10;10.40;99.90
14252;DHT22;7210;51.502;10.722;2023-03-14T08:16:38;10.50;99.90
14252;DHT22;7210;51.502;10.722;2023-03-14T08:19:05;10.60;99.90
14252;DHT22;7210;51.502;10.722;2023-03-14T08:21:33;10.60;99.90
14252;DHT22;7210;51.502;10.722;2023-03-14T08:24:00;10.60;99.90
14252;DHT22;7210;51.502;10.722;2023-03-14T08:26:28;10.80;99.90
14252;DHT22;7210;51.502;10.722;2023-03-14T08:28:55;11.00;99.90
14252;DHT22;7210;51.502;10.722;2023-03-14T08:31:22;11.10;99.90
14252;DHT22;7210;51.502;10.722;2023-03-14T08:33:49;11.30;99.90
14252;DHT22;7210;51.502;10.722;2023-03-14T08:36:18;11.40;99.90
14252;DHT22;7210;51.502;10.722;2023-03-14T08:38:47;11.40;99.90
14252;DHT22;7210;51.502;10.722;2023-03-14T08:41:14;11.50;99.90
14252;DHT22;7210;51.502;10.722;2023-03-14T08:43:41;11.60;99.90
14252;DHT22;7210;51.502;10.722;2023-03-14T08:46:08;11.70;99.90
14252;DHT22;7210;51.502;10.722;2023-03-14T08:48:35;11.70;99.90
14252;DHT22;7210;51.502;10.722;2023-03-14T08:51:06;11.60;99.90
14252;DHT22;7210;51.502;10.722;2023-03-14T08:53:36;11.60;99.90
14252;DHT22;7210;51.502;10.722;2023-03-14T08:56:06;11.70;99.90
14252;DHT22;7210;51.502;10.722;2023-03-14T08:58:35;11.70;99.90
14252;DHT22;7210;51.502;10.722;2023-03-14T09:01:04;11.80;99.90
14252;DHT22;7210;51.502;10.722;2023-03-14T09:03:31;11.80;99.90
14252;DHT22;7210;51.502;10.722;2023-03-14T09:06:02;11.90;99.90
14252;DHT22;7210;51.502;10.722;2023-03-14T09:08:31;11.90;99.90
14252;DHT22;7210;51.502;10.722;2023-03-14T09:10:58;11.90;99.90
14252;DHT22;7210;51.502;10.722;2023-03-14T09:13:27;12.00;99.90
14252;DHT22;7210;51.502;10.722;2023-03-14T09:15:55;11.90;99.90
14252;DHT22;7210;51.502;10.722;2023-03-14T09:18:23;12.00;99.90
14252;DHT22;7210;51.502;10.722;2023-03-14T09:20:50;12.00;99.90
14252;DHT22;7210;51.502;10.722;2023-03-14T09:23:17;12.10;99.90
14252;DHT22;7210;51.502;10.722;2023-03-14T09:25:44;12.20;99.90
14252;DHT22;7210;51.502;10.722;2023-03-14T09:28:11;12.30;99.90
14252;DHT22;7210;51.502;10.722;2023-03-14T09:30:40;12.20;99.90
14252;DHT22;7210;51.502;10.722;2023-03-14T09:33:07;12.20;99.90
14252;DHT22;7210;51.502;10.722;2023-03-14T09:35:34;12.20;99.90
14252;DHT22;7210;51.502;10.722;2023-03-14T09:38:01;12.10;99.90
14252;DHT22;7210;51.502;10.722;2023-03-14T09:40:32;12.00;99.90
14252;DHT22;7210;51.502;10.722;2023-03-14T09:43:02;12.10;99.90
14252;DHT22;7210;51.502;10.722;2023-03-14T09:45:33;12.10;99.90
14252;DHT22;7210;51.502;10.722;2023-03-14T09:48:04;12.10;99.90
14252;DHT22;7210;51.502;10.722;2023-03-14T09:50:37;12.10;99.90
14252;DHT22;7210;51.502;10.722;2023-03-14T09:53:13;12.20;99.90
14252;DHT22;7210;51.502;10.722;2023-03-14T09:55:45;12.20;99.90
14252;DHT22;7210;51.502;10.722;2023-03-14T09:58:16;12.20;99.90
14252;DHT22;7210;51.502;10.722;2023-03-14T10:00:53;12.30;99.90
14252;DHT22;7210;51.502;10.722;2023-03-14T10:03:28;12.40;99.90
14252;DHT22;7210;51.502;10.722;2023-03-14T10:05:58;12.60;99.90
14252;DHT22;7210;51.502;10.722;2023-03-14T10:08:26;12.70;99.90
14252;DHT22;7210;51.502;10.722;2023-03-14T10:10:53;13.00;99.90
14252;DHT22;7210;51.502;10.722;2023-03-14T10:13:22;13.10;99.90
14252;DHT22;7210;51.502;10.722;2023-03-14T10:15:53;13.30;99.90
14252;DHT22;7210;51.502;10.722;2023-03-14T10:18:22;13.60;99.90
14252;DHT22;7210;51.502;10.722;2023-03-14T10:21:03;13.60;99.90
14252;DHT22;7210;51.502;10.722;2023-03-14T10:23:33;13.70;99.90
14252;DHT22;7210;51.502;10.722;2023-03-14T10:26:06;13.90;99.90
14252;DHT22;7210;51.502;10.722;2023-03-14T10:28:39;13.90;99.90
14252;DHT22;7210;51.502;10.722;2023-03-14T10:31:12;13.90;99.90
14252;DHT22;7210;51.502;10.722;2023-03-14T10:33:40;13.80;99.90
14252;DHT22;7210;51.502;10.722;2023-03-14T10:36:18;13.70;99.90
14252;DHT22;7210;51.502;10.722;2023-03-14T10:38:48;13.70;99.90
14252;DHT22;7210;51.502;10.722;2023-03-14T10:41:18;13.70;99.90
14252;DHT22;7210;51.502;10.722;2023-03-14T10:43:51;14.10;99.90
14252;DHT22;7210;51.502;10.722;2023-03-14T10:46:30;14.10;99.90
14252;DHT22;7210;51.502;10.722;2023-03-14T10:49:26;13.90;99.90
14252;DHT22;7210;51.502;10.722;2023-03-14T10:52:13;13.80;99.90
14252;DHT22;7210;51.502;10.722;2023-03-14T10:54:53;13.60;99.90
14252;DHT22;7210;51.502;10.722;2023-03-14T10:57:23;13.60;99.90
14252;DHT22;7210;51.502;10.722;2023-03-14T10:59:52;13.60;99.90
14252;DHT22;7210;51.502;10.722;2023-03-14T11:02:34;13.70;99.90
14252;DHT22;7210;51.502;10.722;2023-03-14T11:05:25;13.60;99.90
14252;DHT22;7210;51.502;10.722;2023-03-14T11:08:01;13.60;99.90
14252;DHT22;7210;51.502;10.722;2023-03-14T11:10:34;13.60;99.90
14252;DHT22;7210;51.502;10.722;2023-03-14T11:13:14;13.30;99.90
14252;DHT22;7210;51.502;10.722;2023-03-14T11:15:52;13.40;99.90
14252;DHT22;7210;51.502;10.722;2023-03-14T11:18:51;13.60;99.90
14252;DHT22;7210;51.502;10.722;2023-03-14T11:21:29;13.70;99.90
14252;DHT22;7210;51.502;10.722;2023-03-14T11:24:21;13.60;99.90
14252;DHT22;7210;51.502;10.722;2023-03-14T11:26:59;13.60;99.90
14252;DHT22;7210;51.502;10.722;2023-03-14T11:29:40;13.50;99.90
14252;DHT22;7210;51.502;10.722;2023-03-14T11:32:13;13.20;99.90
14252;DHT22;7210;51.502;10.722;2023-03-14T11:34:50;13.30;99.90
14252;DHT22;7210;51.502;10.722;2023-03-14T11:37:23;13.10;99.90
14252;DHT22;7210;51.502;10.722;2023-03-14T11:40:01;13.10;99.90
14252;DHT22;7210;51.502;10.722;2023-03-14T11:42:35;13.20;99.90
14252;DHT22;7210;51.502;10.722;2023-03-14T11:45:04;13.40;99.90
14252;DHT22;7210;51.502;10.722;2023-03-14T11:47:44;13.60;99.90
14252;DHT22;7210;51.502;10.722;2023-03-14T11:50:22;13.90;99.90
14252;DHT22;7210;51.502;10.722;2023-03-14T11:52:55;14.10;99.90
14252;DHT22;7210;51.502;10.722;2023-03-14T11:55:28;14.20;99.90
14252;DHT22;7210;51.502;10.722;2023-03-14T11:58:02;14.30;99.90
14252;DHT22;7210;51.502;10.722;2023-03-14T12:00:38;14.10;99.90
14252;DHT22;7210;51.502;10.722;2023-03-14T12:03:13;14.20;99.90
14252;DHT22;7210;51.502;10.722;2023-03-14T12:05:56;14.50;99.90
14252;DHT22;7210;51.502;10.722;2023-03-14T12:08:49;14.70;99.90
14252;DHT22;7210;51.502;10.722;2023-03-14T12:11:28;14.40;99.90
14252;DHT22;7210;51.502;10.722;2023-03-14T12:14:02;14.40;99.90
14252;DHT22;7210;51.502;10.722;2023-03-14T12:16:45;14.80;99.90
14252;DHT22;7210;51.502;10.722;2023-03-14T12:19:33;14.90;99.90
14252;DHT22;7210;51.502;10.722;2023-03-14T12:22:26;14.90;99.90
14252;DHT22;7210;51.502;10.722;2023-03-14T12:25:00;15.00;99.90
14252;DHT22;7210;51.502;10.722;2023-03-14T12:30:33;15.20;99.90
14252;DHT22;7210;51.502;10.722;2023-03-14T12:33:29;15.00;99.90
14252;DHT22;7210;51.502;10.722;2023-03-14T12:36:16;14.80;99.90
14252;DHT22;7210;51.502;10.722;2023-03-14T12:39:13;14.70;99.90
14252;DHT22;7210;51.502;10.722;2023-03-14T12:41:52;14.50;99.90
14252;DHT22;7210;51.502;10.722;2023-03-14T12:44:43;14.50;99.90
14252;DHT22;7210;51.502;10.722;2023-03-14T12:50:45;14.00;99.90
14252;DHT22;7210;51.502;10.722;2023-03-14T12:54:00;13.90;99.90
14252;DHT22;7210;51.502;10.722;2023-03-14T12:57:00;13.80;99.90
14252;DHT22;7210;51.502;10.722;2023-03-14T12:59:34;13.90;99.90
14252;DHT22;7210;51.502;10.722;2023-03-14T13:02:21;13.90;99.90
14252;DHT22;7210;51.502;10.722;2023-03-14T13:04:59;13.70;99.90
14252;DHT22;7210;51.502;10.722;2023-03-14T13:08:03;13.60;99.90
14252;DHT22;7210;51.502;10.722;2023-03-14T13:10:41;13.40;99.90
14252;DHT22;7210;51.502;10.722;2023-03-14T13:13:19;13.20;99.90
14252;DHT22;7210;51.502;10.722;2023-03-14T13:15:48;13.10;99.90
14252;DHT22;7210;51.502;10.722;2023-03-14T13:18:28;12.80;99.90
14252;DHT22;7210;51.502;10.722;2023-03-14T13:21:03;12.30;99.90
14252;DHT22;7210;51.502;10.722;2023-03-14T13:23:34;12.00;99.90
14252;DHT22;7210;51.502;10.722;2023-03-14T13:26:09;11.80;99.90
14252;DHT22;7210;51.502;10.722;2023-03-14T13:28:39;11.20;99.90
14252;DHT22;7210;51.502;10.722;2023-03-14T13:31:23;10.40;99.90
14252;DHT22;7210;51.502;10.722;2023-03-14T13:34:01;9.80;99.90
14252;DHT22;7210;51.502;10.722;2023-03-14T13:36:31;9.30;99.90
14252;DHT22;7210;51.502;10.722;2023-03-14T13:39:01;8.90;99.90
14252;DHT22;7210;51.502;10.722;2023-03-14T13:41:30;8.70;99.90
14252;DHT22;7210;51.502;10.722;2023-03-14T13:44:02;8.50;99.90
14252;DHT22;7210;51.502;10.722;2023-03-14T13:46:34;8.30;99.90
14252;DHT22;7210;51.502;10.722;2023-03-14T13:49:05;8.20;99.90
14252;DHT22;7210;51.502;10.722;2023-03-14T13:51:34;8.10;99.90
14252;DHT22;7210;51.502;10.722;2023-03-14T13:54:01;7.80;99.90
14252;DHT22;7210;51.502;10.722;2023-03-14T13:56:32;7.80;99.90
14252;DHT22;7210;51.502;10.722;2023-03-14T13:58:59;7.60;99.90
14252;DHT22;7210;51.502;10.722;2023-03-14T14:01:29;7.40;99.90
14252;DHT22;7210;51.502;10.722;2023-03-14T14:04:02;7.30;99.90
14252;DHT22;7210;51.502;10.722;2023-03-14T14:06:36;7.10;99.90
14252;DHT22;7210;51.502;10.722;2023-03-14T14:09:11;7.10;99.90
14252;DHT22;7210;51.502;10.722;2023-03-14T14:11:43;7.00;99.90
14252;DHT22;7210;51.502;10.722;2023-03-14T14:14:17;7.00;99.90
14252;DHT22;7210;51.502;10.722;2023-03-14T14:16:48;7.00;99.90
14252;DHT22;7210;51.502;10.722;2023-03-14T14:19:19;6.90;99.90
14252;DHT22;7210;51.502;10.722;2023-03-14T14:21:50;6.70;99.90
14252;DHT22;7210;51.502;10.722;2023-03-14T14:24:23;6.40;99.90
14252;DHT22;7210;51.502;10.722;2023-03-14T14:26:59;6.30;99.90
14252;DHT22;7210;51.502;10.722;2023-03-14T14:29:33;6.10;99.90
14252;DHT22;7210;51.502;10.722;2023-03-14T14:32:11;5.80;99.90
14252;DHT22;7210;51.502;10.722;2023-03-14T14:34:42;5.50;99.90
14252;DHT22;7210;51.502;10.722;2023-03-14T14:37:19;5.30;99.90
14252;DHT22;7210;51.502;10.722;2023-03-14T14:39:48;5.10;99.90
14252;DHT22;7210;51.502;10.722;2023-03-14T14:42:20;5.00;99.90
14252;DHT22;7210;51.502;10.722;2023-03-14T14:44:49;4.90;99.90
14252;DHT22;7210;51.502;10.722;2023-03-14T14:47:20;4.70;99.90
14252;DHT22;7210;51.502;10.722;2023-03-14T14:49:51;4.60;99.90
14252;DHT22;7210;51.502;10.722;2023-03-14T14:52:22;4.60;99.90
14252;DHT22;7210;51.502;10.722;2023-03-14T14:55:00;4.60;99.90
14252;DHT22;7210;51.502;10.722;2023-03-14T14:57:31;4.70;99.90
14252;DHT22;7210;51.502;10.722;2023-03-14T15:00:04;4.70;99.90
14252;DHT22;7210;51.502;10.722;2023-03-14T15:02:38;4.70;99.90
14252;DHT22;7210;51.502;10.722;2023-03-14T15:05:14;4.70;99.90
14252;DHT22;7210;51.502;10.722;2023-03-14T15:07:42;4.60;99.90
14252;DHT22;7210;51.502;10.722;2023-03-14T15:10:11;4.50;99.90
14252;DHT22;7210;51.502;10.722;2023-03-14T15:12:40;4.40;99.90
14252;DHT22;7210;51.502;10.722;2023-03-14T15:15:08;4.30;99.90
14252;DHT22;7210;51.502;10.722;2023-03-14T15:17:45;4.20;99.90
14252;DHT22;7210;51.502;10.722;2023-03-14T15:20:16;4.10;99.90
14252;DHT22;7210;51.502;10.722;2023-03-14T15:22:45;4.10;99.90
14252;DHT22;7210;51.502;10.722;2023-03-14T15:25:12;4.10;99.90
14252;DHT22;7210;51.502;10.722;2023-03-14T15:27:39;4.00;99.90
14252;DHT22;7210;51.502;10.722;2023-03-14T15:30:10;4.00;99.90
14252;DHT22;7210;51.502;10.722;2023-03-14T15:32:40;4.10;99.90
14252;DHT22;7210;51.502;10.722;2023-03-14T15:35:07;4.10;99.90
14252;DHT22;7210;51.502;10.722;2023-03-14T15:37:36;4.10;99.90
14252;DHT22;7210;51.502;10.722;2023-03-14T15:40:04;4.10;99.90
14252;DHT22;7210;51.502;10.722;2023-03-14T15:42:38;4.10;99.90
14252;DHT22;7210;51.502;10.722;2023-03-14T15:45:06;4.10;99.90
14252;DHT22;7210;51.502;10.722;2023-03-14T15:47:39;4.20;99.90
14252;DHT22;7210;51.502;10.722;2023-03-14T15:50:09;4.20;99.90
14252;DHT22;7210;51.502;10.722;2023-03-14T15:52:38;4.20;99.90
14252;DHT22;7210;51.502;10.722;2023-03-14T15:55:05;4.30;99.90
14252;DHT22;7210;51.502;10.722;2023-03-14T15:57:33;4.30;99.90
14252;DHT22;7210;51.502;10.722;2023-03-14T16:00:00;4.40;99.90
14252;DHT22;7210;51.502;10.722;2023-03-14T16:02:27;4.30;99.90
14252;DHT22;7210;51.502;10.722;2023-03-14T16:04:55;4.40;99.90
14252;DHT22;7210;51.502;10.722;2023-03-14T16:07:22;4.40;99.90
14252;DHT22;7210;51.502;10.722;2023-03-14T16:09:51;4.50;99.90
14252;DHT22;7210;51.502;10.722;2023-03-14T16:12:18;4.40;99.90
14252;DHT22;7210;51.502;10.722;2023-03-14T16:14:47;4.40;99.90
14252;DHT22;7210;51.502;10.722;2023-03-14T16:17:14;4.50;99.90
14252;DHT22;7210;51.502;10.722;2023-03-14T16:19:42;4.50;99.90
14252;DHT22;7210;51.502;10.722;2023-03-14T16:22:11;4.50;99.90
14252;DHT22;7210;51.502;10.722;2023-03-14T16:24:38;4.60;99.90
14252;DHT22;7210;51.502;10.722;2023-03-14T16:27:07;4.60;99.90